Snead, Alabama
Current Conditions -  °F | °C
As of 3:35 AM on Monday 24 Nov 2014 (Local Time) from K8A0 Reporting Station
Overcast Overcast  
Wind Chill: 63°   Ceiling: 2300
Heat Index: 63°   Visibility: 10mi
Dew Point: 61°   Wind: 15mph
Humidity: 94%   Direction: 220°SW
Pressure: 29.67"   Gusts: 22mph
Location:  34.0372°N, 86.3445°W
Report Text: K8A0 240935Z AUTO 22013G19KT 10SM BKN023 OVC030 17/16 A2967 RMK AO2
Loading
Personal Weather Stations






























Interactive Weather Map New forecast layout! Learn more

10-Day Weather Forecast

Advertisements
Track Severe Weather on mobile